• Join FlightAware (Why Join?)
  • Login
  • US Flag 
10:02AM EST


 

Airport Tracker/Info


-or-


 

Live Flight TrackerFlight Track Log ✈ FDX1260 ✈ 02-Aug-2013 ✈ KCVG - KMEM

Flight Track Log - Related Links

Times and Time Zones

All times are in EDT time to prevent confusion due to time zone crossing. See the FDX1260 flight status page for this flight to view local times or setup timezone preferences in your user account.

Time Position Orientation Groundspeed Altitude Reporting Facility
EDT Latitude Longitude Course Direction KTS MPH feet Rate Location/Type
11:14PM 39.0120 -84.9000 230° Southwest 13,200  Level FlightAware
11:15PM 38.9730 -84.9660 233° Southwest 470 541 15,600 3,600 Climbing FlightAware
11:16PM 38.9390 -85.0240 233° Southwest 358 412 17,300 3,300 Climbing FlightAware
11:16PM 38.8940 -85.0930 230° Southwest 347 399 19,400 3,060 Climbing FlightAware
11:17PM 38.8360 -85.1420 213° Southwest 463 533 21,000 2,820 Climbing FlightAware
11:17PM 38.7700 -85.1900 210° Southwest 499 574 22,800 2,700 Climbing FlightAware
11:18PM 38.7130 -85.2300 209° Southwest 391 450 24,100 2,280 Climbing FlightAware
11:18PM 38.6430 -85.2780 208° Southwest 424 488 25,400 2,880 Climbing FlightAware
11:19PM 38.5770 -85.3240 209° Southwest 477 549 27,500 3,540 Climbing FlightAware
11:20PM 38.5090 -85.3710 208° Southwest 543 625 29,700 3,000 Climbing FlightAware
11:20PM 38.4530 -85.4100 209° Southwest 386 444 31,000 1,920 Climbing FlightAware
11:21PM 38.3790 -85.4610 208° Southwest 648 746 32,000 780 Climbing FlightAware
11:21PM 38.3110 -85.5080 208° Southwest 564 649 32,000  Level FlightAware
11:22PM 38.2620 -85.5420 209° Southwest 353 406 32,000  Level FlightAware
11:23PM 38.1980 -85.5860 208° Southwest 427 491 32,000  Level FlightAware
11:23PM 38.1350 -85.6290 208° Southwest 301 346 32,000  Level FlightAware
11:24PM 38.0730 -85.6710 208° Southwest 487 560 32,000  Level FlightAware
11:24PM 38.0070 -85.7170 209° Southwest 409 471 32,000  Level FlightAware
11:25PM 37.9390 -85.7640 209° Southwest 627 722 32,000  Level FlightAware
11:25PM 37.8770 -85.8060 208° Southwest 524 603 32,000  Level FlightAware
11:26PM 37.8120 -85.8500 208° Southwest 491 565 32,000  Level FlightAware
11:27PM 37.7490 -85.8940 209° Southwest 515 593 32,000  Level FlightAware
11:27PM 37.6840 -85.9370 208° Southwest 467 537 32,000  Level FlightAware
11:28PM 37.6200 -85.9810 209° Southwest 488 562 32,000  Level FlightAware
11:28PM 37.5570 -86.0240 208° Southwest 412 474 32,000  Level FlightAware
11:29PM 37.4857 -86.0716 208° Southwest 456 525 32,000  Level FlightAware ADS-B
11:30PM 37.4160 -86.1180 208° Southwest 348 400 32,000  Level FlightAware
11:30PM 37.3500 -86.1620 208° Southwest 315 362 32,000  Level FlightAware
11:31PM 37.2938 -86.2001 208° Southwest 32,000  Level FlightAware ADS-B
11:32PM 37.1990 -86.2630 208° Southwest 488 562 32,000  Level FlightAware
11:32PM 37.1420 -86.3020 209° Southwest 363 418 32,000  Level FlightAware
11:33PM 37.0700 -86.3490 208° Southwest 434 499 32,000  Level FlightAware
11:33PM 37.0138 -86.3869 208° Southwest 455 524 32,000  Level FlightAware ADS-B
11:34PM 36.9594 -86.4284 211° Southwest 456 525 32,000  Level FlightAware ADS-B
11:34PM 36.8986 -86.4902 219° Southwest 446 513 32,000  Level FlightAware ADS-B
11:35PM 36.8519 -86.5527 227° Southwest 442 509 32,000  Level FlightAware ADS-B
11:35PM 36.8092 -86.6178 231° Southwest 456 525 32,000  Level FlightAware ADS-B
11:36PM 36.7407 -86.7204 230° Southwest 440 506 32,000  Level FlightAware ADS-B
11:37PM 36.6864 -86.8001 230° Southwest 443 510 32,000  Level FlightAware ADS-B
11:37PM 36.6450 -86.8600 229° Southwest 426 490 32,000  Level FlightAware
11:38PM 36.5970 -86.9300 230° Southwest 514 592 32,000  Level FlightAware
11:39PM 36.5550 -86.9920 230° Southwest 362 417 32,000 -360 Level FlightAware
11:39PM 36.5060 -87.0630 229° Southwest 498 573 31,600 -780 Descending FlightAware
11:40PM 36.4600 -87.1310 230° Southwest 388 447 31,100 -1,080 Descending FlightAware
11:40PM 36.4070 -87.2060 229° Southwest 544 626 30,400 -960 Descending FlightAware
11:41PM 36.3580 -87.2780 230° Southwest 524 603 30,000 -360 Descending FlightAware
11:42PM 36.3120 -87.3460 230° Southwest 389 448 30,000  Level FlightAware
11:42PM 36.2590 -87.4210 229° Southwest 495 570 30,000  Level FlightAware
11:43PM 36.2080 -87.4940 229° Southwest 515 593 30,000  Level FlightAware
11:43PM 36.1550 -87.5710 230° Southwest 535 616 30,000  Level FlightAware
11:44PM 36.1090 -87.6360 229° Southwest 399 459 30,000  Level FlightAware
11:44PM 36.0570 -87.7110 229° Southwest 506 582 30,000  Level FlightAware
11:45PM 36.0040 -87.7870 229° Southwest 518 596 30,000  Level FlightAware
11:46PM 35.9570 -87.8530 229° Southwest 382 440 30,000  Level FlightAware
11:46PM 35.9090 -87.9210 229° Southwest 430 495 30,000  Level FlightAware
11:47PM 35.8580 -87.9930 229° Southwest 483 556 30,000 -600 Level FlightAware
11:48PM 35.7560 -88.1370 229° Southwest 455 524 29,000 -1,860 Descending FlightAware
11:49PM 35.6797 -88.2408 229° Southwest 451 519 25,900 -2,100 Descending Memphis Center
11:50PM 35.5981 -88.3578 229° Southwest 451 519 24,800 -1,200 Descending Memphis Center
11:51PM 35.5183 -88.4592 226° Southwest 437 503 23,500 -1,980 Descending Memphis Center
11:52PM 35.4406 -88.5578 226° Southwest 419 482 20,900 -2,640 Descending Memphis Center
11:53PM 35.3567 -88.6667 227° Southwest 402 463 18,300 -2,340 Descending Memphis Center
11:54PM 35.2828 -88.7547 224° Southwest 389 448 16,300 -2,040 Descending Memphis Center
11:55PM 35.2131 -88.8450 227° Southwest 376 433 14,300 -1,860 Descending Memphis Center
11:56PM 35.1492 -88.9222 225° Southwest 365 420 12,600 -1,740 Descending Memphis Center
11:57PM 35.0833 -89.0044 226° Southwest 352 405 10,900 -1,440 Descending Memphis Center
11:58PM 35.0364 -89.0889 236° Southwest 335 386 9,800 -960 Descending Memphis Center
11:59PM 35.0372 -89.1828 271° West 283 326 9,000 -840 Descending Memphis Center
12:00AM 35.0400 -89.2639 272° West 250 288 8,200 -1,020 Descending Memphis Center
12:01AM 35.0408 -89.3425 271° West 240 276 7,000 -1,080 Descending Memphis Center
12:02AM 35.0433 -89.4211 272° West 235 270 6,100 -540 Descending Memphis Center
12:03AM 35.0419 -89.4947 269° West 229 264 6,000 -600 Descending Memphis Center
12:04AM 35.0467 -89.5936 273° West 250 288 4,900 -960 Descending Memphis Center
12:05AM 35.0556 -89.6772 277° West 256 295 4,100 -900 Descending Memphis Center
12:06AM 35.0517 -89.7508 266° West 238 274 3,100 -720 Descending Memphis Center
12:07AM 35.0561 -89.8117 275° West 206 237 2,700 -720 Descending Memphis Center
12:08AM 35.0564 -89.8700 270° West 183 211 1,700 -840 Descending Memphis Center
12:09AM 35.0500 -89.9167 261° West 132 152 1,100 9,420 Descending KMEM
12:11AM 35.0589 -90.0044 277° West 140 161 30,000 9,360 Climbing Memphis Center
12:12AM 35.0592 -90.0475 270° West 140 161 30,000  Level Memphis Center
12:14AM 35.0424 -89.9767 270° West  Level Estimated
12:21AM 35.0424 -89.9767 270° West  Level Estimated
12:22AM 35.0424 -89.9767 270° West  Level Estimated
12:23AM 35.0424 -89.9767 270° West  Level Estimated
12:24AM 35.0424 -89.9767 270° West  Level Estimated
12:25AM 35.0424 -89.9767 270° West  Level Estimated
12:26AM 35.0424 -89.9767 270° West  Level Estimated